sensor_id;sensor_type;location;lat;lon;timestamp;pressure;altitude;pressure_sealevel;temperature;humidity
72438;BME280;60444;43.534;-5.674;2023-03-29T00:00:12;101754.91;;;14.96;100.00
72438;BME280;60444;43.534;-5.674;2023-03-29T00:02:42;101754.91;;;14.96;100.00
72438;BME280;60444;43.534;-5.674;2023-03-29T00:05:14;101743.84;;;14.99;100.00
72438;BME280;60444;43.534;-5.674;2023-03-29T00:07:40;101751.09;;;15.00;100.00
72438;BME280;60444;43.534;-5.674;2023-03-29T00:10:08;101747.38;;;15.01;100.00
72438;BME280;60444;43.534;-5.674;2023-03-29T00:12:35;101741.94;;;15.01;100.00
72438;BME280;60444;43.534;-5.674;2023-03-29T00:15:02;101734.72;;;15.00;100.00
72438;BME280;60444;43.534;-5.674;2023-03-29T00:17:28;101739.03;;;15.04;100.00
72438;BME280;60444;43.534;-5.674;2023-03-29T00:19:54;101726.69;;;14.97;100.00
72438;BME280;60444;43.534;-5.674;2023-03-29T00:22:20;101714.94;;;14.96;100.00
72438;BME280;60444;43.534;-5.674;2023-03-29T00:24:46;101727.19;;;15.05;100.00
72438;BME280;60444;43.534;-5.674;2023-03-29T00:27:14;101738.91;;;15.07;100.00
72438;BME280;60444;43.534;-5.674;2023-03-29T00:29:40;101711.50;;;14.93;100.00
72438;BME280;60444;43.534;-5.674;2023-03-29T00:32:06;101733.75;;;15.01;100.00
72438;BME280;60444;43.534;-5.674;2023-03-29T00:34:32;101744.47;;;15.04;100.00
72438;BME280;60444;43.534;-5.674;2023-03-29T00:37:03;101736.31;;;15.04;100.00
72438;BME280;60444;43.534;-5.674;2023-03-29T00:39:33;101731.84;;;15.03;100.00
72438;BME280;60444;43.534;-5.674;2023-03-29T00:42:00;101719.09;;;15.03;100.00
72438;BME280;60444;43.534;-5.674;2023-03-29T00:45:09;101717.31;;;15.02;100.00
72438;BME280;60444;43.534;-5.674;2023-03-29T00:47:48;101716.59;;;14.99;100.00
72438;BME280;60444;43.534;-5.674;2023-03-29T00:50:21;101719.31;;;14.99;100.00
72438;BME280;60444;43.534;-5.674;2023-03-29T00:52:54;101705.16;;;14.92;100.00
72438;BME280;60444;43.534;-5.674;2023-03-29T00:55:26;101709.72;;;14.92;100.00
72438;BME280;60444;43.534;-5.674;2023-03-29T00:57:55;101706.19;;;14.90;100.00
72438;BME280;60444;43.534;-5.674;2023-03-29T01:00:26;101708.81;;;14.91;100.00
72438;BME280;60444;43.534;-5.674;2023-03-29T01:02:54;101709.97;;;14.87;100.00
72438;BME280;60444;43.534;-5.674;2023-03-29T01:05:44;101713.91;;;14.82;95.48
72438;BME280;60444;43.534;-5.674;2023-03-29T01:08:17;101701.69;;;14.72;91.78
72438;BME280;60444;43.534;-5.674;2023-03-29T01:11:08;101697.88;;;14.76;100.00
72438;BME280;60444;43.534;-5.674;2023-03-29T01:13:43;101719.25;;;14.83;100.00
72438;BME280;60444;43.534;-5.674;2023-03-29T01:16:11;101701.22;;;14.81;100.00
72438;BME280;60444;43.534;-5.674;2023-03-29T01:18:38;101682.56;;;14.73;100.00
72438;BME280;60444;43.534;-5.674;2023-03-29T01:21:18;101666.47;;;14.69;100.00
72438;BME280;60444;43.534;-5.674;2023-03-29T01:26:45;101672.25;;;14.80;100.00
72438;BME280;60444;43.534;-5.674;2023-03-29T01:29:59;101660.75;;;14.73;100.00
72438;BME280;60444;43.534;-5.674;2023-03-29T01:32:37;101666.06;;;14.76;100.00
72438;BME280;60444;43.534;-5.674;2023-03-29T01:35:17;101668.72;;;14.78;100.00
72438;BME280;60444;43.534;-5.674;2023-03-29T01:37:59;101644.78;;;14.67;100.00
72438;BME280;60444;43.534;-5.674;2023-03-29T01:40:25;101668.72;;;14.78;100.00
72438;BME280;60444;43.534;-5.674;2023-03-29T01:45:46;101657.72;;;14.79;100.00
72438;BME280;60444;43.534;-5.674;2023-03-29T01:51:08;101639.56;;;14.80;100.00
72438;BME280;60444;43.534;-5.674;2023-03-29T01:53:46;101631.38;;;14.80;100.00
72438;BME280;60444;43.534;-5.674;2023-03-29T01:56:20;101635.06;;;14.79;100.00
72438;BME280;60444;43.534;-5.674;2023-03-29T01:58:51;101632.31;;;14.79;100.00
72438;BME280;60444;43.534;-5.674;2023-03-29T02:01:21;101615.53;;;14.71;100.00
72438;BME280;60444;43.534;-5.674;2023-03-29T02:03:51;101615.63;;;14.69;98.42
72438;BME280;60444;43.534;-5.674;2023-03-29T02:06:21;101605.09;;;14.79;100.00
72438;BME280;60444;43.534;-5.674;2023-03-29T02:08:50;101582.22;;;14.66;100.00
72438;BME280;60444;43.534;-5.674;2023-03-29T02:11:17;101608.78;;;14.78;100.00
72438;BME280;60444;43.534;-5.674;2023-03-29T02:13:43;101600.78;;;14.75;100.00
72438;BME280;60444;43.534;-5.674;2023-03-29T02:16:10;101583.16;;;14.65;100.00
72438;BME280;60444;43.534;-5.674;2023-03-29T02:18:38;101605.09;;;14.79;100.00
72438;BME280;60444;43.534;-5.674;2023-03-29T02:21:06;101606.16;;;14.76;100.00
72438;BME280;60444;43.534;-5.674;2023-03-29T02:23:37;101597.00;;;14.77;100.00
72438;BME280;60444;43.534;-5.674;2023-03-29T02:26:05;101586.28;;;14.74;100.00
72438;BME280;60444;43.534;-5.674;2023-03-29T02:28:34;101583.88;;;14.68;100.00
72438;BME280;60444;43.534;-5.674;2023-03-29T02:33:57;101582.44;;;14.78;100.00
72438;BME280;60444;43.534;-5.674;2023-03-29T02:36:32;101585.16;;;14.78;100.00
72438;BME280;60444;43.534;-5.674;2023-03-29T02:39:01;101576.34;;;14.73;100.00
72438;BME280;60444;43.534;-5.674;2023-03-29T02:41:30;101588.75;;;14.79;100.00
72438;BME280;60444;43.534;-5.674;2023-03-29T02:43:57;101571.25;;;14.67;98.68
72438;BME280;60444;43.534;-5.674;2023-03-29T02:46:24;101584.09;;;14.81;100.00
72438;BME280;60444;43.534;-5.674;2023-03-29T02:48:51;101576.09;;;14.78;100.00
72438;BME280;60444;43.534;-5.674;2023-03-29T02:51:21;101576.81;;;14.81;100.00
72438;BME280;60444;43.534;-5.674;2023-03-29T02:53:51;101584.91;;;14.83;100.00
72438;BME280;60444;43.534;-5.674;2023-03-29T02:56:22;101579.00;;;14.75;100.00
72438;BME280;60444;43.534;-5.674;2023-03-29T02:58:47;101595.78;;;14.83;98.95
72438;BME280;60444;43.534;-5.674;2023-03-29T03:01:13;101571.16;;;14.69;94.09
72438;BME280;60444;43.534;-5.674;2023-03-29T03:03:40;101562.28;;;14.65;95.60
72438;BME280;60444;43.534;-5.674;2023-03-29T03:06:06;101588.44;;;14.85;100.00
72438;BME280;60444;43.534;-5.674;2023-03-29T03:08:32;101584.00;;;14.82;100.00
72438;BME280;60444;43.534;-5.674;2023-03-29T03:10:58;101594.84;;;14.84;100.00
72438;BME280;60444;43.534;-5.674;2023-03-29T03:13:23;101570.34;;;14.67;95.93
72438;BME280;60444;43.534;-5.674;2023-03-29T03:15:49;101562.19;;;14.67;100.00
72438;BME280;60444;43.534;-5.674;2023-03-29T03:18:15;101580.44;;;14.82;100.00
72438;BME280;60444;43.534;-5.674;2023-03-29T03:20:41;101583.28;;;14.79;100.00
72438;BME280;60444;43.534;-5.674;2023-03-29T03:23:07;101584.09;;;14.81;100.00
72438;BME280;60444;43.534;-5.674;2023-03-29T03:25:36;101579.63;;;14.80;100.00
72438;BME280;60444;43.534;-5.674;2023-03-29T03:28:01;101558.50;;;14.68;100.00
72438;BME280;60444;43.534;-5.674;2023-03-29T03:30:27;101574.34;;;14.77;100.00
72438;BME280;60444;43.534;-5.674;2023-03-29T03:32:53;101567.13;;;14.76;100.00
72438;BME280;60444;43.534;-5.674;2023-03-29T03:35:20;101560.88;;;14.74;100.00
72438;BME280;60444;43.534;-5.674;2023-03-29T03:37:45;101576.28;;;14.75;100.00
72438;BME280;60444;43.534;-5.674;2023-03-29T03:40:11;101569.94;;;14.74;100.00
72438;BME280;60444;43.534;-5.674;2023-03-29T03:42:39;101579.00;;;14.75;100.00
72438;BME280;60444;43.534;-5.674;2023-03-29T03:45:06;101546.53;;;14.54;100.00
72438;BME280;60444;43.534;-5.674;2023-03-29T03:47:36;101547.06;;;14.61;100.00
72438;BME280;60444;43.534;-5.674;2023-03-29T03:50:02;101555.72;;;14.69;100.00
72438;BME280;60444;43.534;-5.674;2023-03-29T03:52:28;101541.88;;;14.57;100.00
72438;BME280;60444;43.534;-5.674;2023-03-29T03:54:54;101530.19;;;14.54;100.00
72438;BME280;60444;43.534;-5.674;2023-03-29T03:57:19;101532.81;;;14.56;100.00
72438;BME280;60444;43.534;-5.674;2023-03-29T03:59:44;101544.59;;;14.57;100.00
72438;BME280;60444;43.534;-5.674;2023-03-29T04:02:10;101534.75;;;14.54;100.00
72438;BME280;60444;43.534;-5.674;2023-03-29T04:04:36;101516.66;;;14.53;100.00
72438;BME280;60444;43.534;-5.674;2023-03-29T04:07:01;101536.34;;;14.58;100.00
72438;BME280;60444;43.534;-5.674;2023-03-29T04:09:31;101522.41;;;14.47;100.00
72438;BME280;60444;43.534;-5.674;2023-03-29T04:11:59;101531.38;;;14.49;97.29
72438;BME280;60444;43.534;-5.674;2023-03-29T04:14:26;101532.09;;;14.52;100.00
72438;BME280;60444;43.534;-5.674;2023-03-29T04:16:52;101520.81;;;14.43;100.00
72438;BME280;60444;43.534;-5.674;2023-03-29T04:19:18;101535.72;;;14.53;100.00
72438;BME280;60444;43.534;-5.674;2023-03-29T04:21:44;101518.97;;;14.43;100.00
72438;BME280;60444;43.534;-5.674;2023-03-29T04:24:12;101522.41;;;14.47;100.00
72438;BME280;60444;43.534;-5.674;2023-03-29T04:26:37;101518.72;;;14.48;100.00
72438;BME280;60444;43.534;-5.674;2023-03-29T04:29:03;101506.00;;;14.48;100.00
72438;BME280;60444;43.534;-5.674;2023-03-29T04:31:29;101496.50;;;14.40;100.00
72438;BME280;60444;43.534;-5.674;2023-03-29T04:33:55;101506.25;;;14.44;100.00
72438;BME280;60444;43.534;-5.674;2023-03-29T04:36:21;101506.81;;;14.50;100.00
72438;BME280;60444;43.534;-5.674;2023-03-29T04:38:46;101507.13;;;14.44;100.00
72438;BME280;60444;43.534;-5.674;2023-03-29T04:41:13;101512.41;;;14.47;100.00
72438;BME280;60444;43.534;-5.674;2023-03-29T04:43:40;101487.00;;;14.31;100.00
72438;BME280;60444;43.534;-5.674;2023-03-29T04:46:06;101512.41;;;14.47;100.00
72438;BME280;60444;43.534;-5.674;2023-03-29T04:48:32;101494.97;;;14.34;100.00
72438;BME280;60444;43.534;-5.674;2023-03-29T04:50:58;101509.03;;;14.42;100.00
72438;BME280;60444;43.534;-5.674;2023-03-29T04:53:24;101507.03;;;14.46;100.00
72438;BME280;60444;43.534;-5.674;2023-03-29T04:55:50;101498.00;;;14.45;100.00
72438;BME280;60444;43.534;-5.674;2023-03-29T04:58:17;101495.28;;;14.45;100.00
72438;BME280;60444;43.534;-5.674;2023-03-29T05:00:45;101482.16;;;14.36;100.00
72438;BME280;60444;43.534;-5.674;2023-03-29T05:03:10;101485.59;;;14.40;100.00
72438;BME280;60444;43.534;-5.674;2023-03-29T05:05:38;101488.88;;;14.46;100.00
72438;BME280;60444;43.534;-5.674;2023-03-29T05:08:05;101487.91;;;14.47;100.00
72438;BME280;60444;43.534;-5.674;2023-03-29T05:10:31;101490.78;;;14.44;100.00
72438;BME280;60444;43.534;-5.674;2023-03-29T05:12:56;101465.97;;;14.33;100.00
72438;BME280;60444;43.534;-5.674;2023-03-29T05:15:22;101476.72;;;14.36;100.00
72438;BME280;60444;43.534;-5.674;2023-03-29T05:17:48;101480.06;;;14.41;100.00
72438;BME280;60444;43.534;-5.674;2023-03-29T05:20:14;101472.41;;;14.32;100.00
72438;BME280;60444;43.534;-5.674;2023-03-29T05:22:40;101476.72;;;14.36;100.00
72438;BME280;60444;43.534;-5.674;2023-03-29T05:25:06;101454.13;;;14.17;100.00
72438;BME280;60444;43.534;-5.674;2023-03-29T05:27:33;101487.44;;;14.39;100.00
72438;BME280;60444;43.534;-5.674;2023-03-29T05:29:59;101471.59;;;14.30;100.00
72438;BME280;60444;43.534;-5.674;2023-03-29T05:32:26;101459.44;;;14.20;100.00
72438;BME280;60444;43.534;-5.674;2023-03-29T05:34:52;101480.34;;;14.37;100.00
72438;BME280;60444;43.534;-5.674;2023-03-29T05:37:17;101484.28;;;14.31;100.00
72438;BME280;60444;43.534;-5.674;2023-03-29T05:39:43;101468.22;;;14.25;100.00
72438;BME280;60444;43.534;-5.674;2023-03-29T05:42:09;101483.19;;;14.34;100.00
72438;BME280;60444;43.534;-5.674;2023-03-29T05:44:38;101472.59;;;14.29;100.00
72438;BME280;60444;43.534;-5.674;2023-03-29T05:47:04;101484.28;;;14.31;100.00
72438;BME280;60444;43.534;-5.674;2023-03-29T05:49:30;101480.41;;;14.35;100.00
72438;BME280;60444;43.534;-5.674;2023-03-29T05:51:57;101461.69;;;14.29;100.00
72438;BME280;60444;43.534;-5.674;2023-03-29T05:54:23;101466.88;;;14.34;100.00
72438;BME280;60444;43.534;-5.674;2023-03-29T05:57:01;101483.78;;;14.40;100.00
72438;BME280;60444;43.534;-5.674;2023-03-29T05:59:26;101469.88;;;14.29;100.00
72438;BME280;60444;43.534;-5.674;2023-03-29T06:01:53;101480.47;;;14.34;100.00
72438;BME280;60444;43.534;-5.674;2023-03-29T06:04:19;101487.44;;;14.39;100.00
72438;BME280;60444;43.534;-5.674;2023-03-29T06:06:45;101481.19;;;14.37;100.00
72438;BME280;60444;43.534;-5.674;2023-03-29T06:09:10;101486.50;;;14.40;100.00
72438;BME280;60444;43.534;-5.674;2023-03-29T06:11:36;101466.44;;;14.24;100.00
72438;BME280;60444;43.534;-5.674;2023-03-29T06:14:02;101476.97;;;14.32;100.00
72438;BME280;60444;43.534;-5.674;2023-03-29T06:16:27;101498.31;;;14.39;100.00
72438;BME280;60444;43.534;-5.674;2023-03-29T06:18:53;101484.72;;;14.39;100.00
72438;BME280;60444;43.534;-5.674;2023-03-29T06:21:19;101473.22;;;14.34;100.00
72438;BME280;60444;43.534;-5.674;2023-03-29T06:23:45;101486.41;;;14.42;100.00
72438;BME280;60444;43.534;-5.674;2023-03-29T06:26:10;101482.97;;;14.38;100.00
72438;BME280;60444;43.534;-5.674;2023-03-29T06:28:37;101480.06;;;14.41;100.00
72438;BME280;60444;43.534;-5.674;2023-03-29T06:31:03;101483.59;;;14.43;100.00
72438;BME280;60444;43.534;-5.674;2023-03-29T06:33:29;101482.88;;;14.40;100.00
72438;BME280;60444;43.534;-5.674;2023-03-29T06:35:56;101471.09;;;14.39;100.00
72438;BME280;60444;43.534;-5.674;2023-03-29T06:38:23;101472.78;;;14.42;100.00
72438;BME280;60444;43.534;-5.674;2023-03-29T06:40:49;101479.03;;;14.44;100.00
72438;BME280;60444;43.534;-5.674;2023-03-29T06:43:15;101489.03;;;14.43;100.00
72438;BME280;60444;43.534;-5.674;2023-03-29T06:45:41;101477.44;;;14.40;100.00
72438;BME280;60444;43.534;-5.674;2023-03-29T06:48:09;101492.66;;;14.44;100.00
72438;BME280;60444;43.534;-5.674;2023-03-29T06:50:35;101494.22;;;14.48;100.00
72438;BME280;60444;43.534;-5.674;2023-03-29T06:53:02;101494.31;;;14.46;100.00
72438;BME280;60444;43.534;-5.674;2023-03-29T06:55:28;101489.03;;;14.43;100.00
72438;BME280;60444;43.534;-5.674;2023-03-29T06:57:54;101493.50;;;14.44;100.00
72438;BME280;60444;43.534;-5.674;2023-03-29T07:00:20;101493.81;;;14.55;100.00
72438;BME280;60444;43.534;-5.674;2023-03-29T07:02:56;101500.06;;;14.57;100.00
72438;BME280;60444;43.534;-5.674;2023-03-29T07:05:26;101491.78;;;14.59;100.00
72438;BME280;60444;43.534;-5.674;2023-03-29T07:07:52;101491.72;;;14.61;100.00
72438;BME280;60444;43.534;-5.674;2023-03-29T07:10:34;101501.47;;;14.65;100.00
72438;BME280;60444;43.534;-5.674;2023-03-29T07:13:06;101512.84;;;14.73;100.00
72438;BME280;60444;43.534;-5.674;2023-03-29T07:15:33;101511.88;;;14.74;100.00
72438;BME280;60444;43.534;-5.674;2023-03-29T07:18:00;101511.63;;;14.78;100.00
72438;BME280;60444;43.534;-5.674;2023-03-29T07:20:30;101515.88;;;14.84;100.00
72438;BME280;60444;43.534;-5.674;2023-03-29T07:22:56;101518.50;;;14.85;100.00
72438;BME280;60444;43.534;-5.674;2023-03-29T07:25:23;101531.69;;;14.93;100.00
72438;BME280;60444;43.534;-5.674;2023-03-29T07:27:49;101508.22;;;14.90;100.00
72438;BME280;60444;43.534;-5.674;2023-03-29T07:30:24;101512.44;;;14.96;100.00
72438;BME280;60444;43.534;-5.674;2023-03-29T07:32:52;101517.19;;;15.08;100.00
72438;BME280;60444;43.534;-5.674;2023-03-29T07:35:18;101500.41;;;15.00;100.00
72438;BME280;60444;43.534;-5.674;2023-03-29T07:37:44;101531.00;;;15.20;100.00
72438;BME280;60444;43.534;-5.674;2023-03-29T07:40:13;101502.25;;;15.15;100.00
72438;BME280;60444;43.534;-5.674;2023-03-29T07:42:56;101522.22;;;15.31;100.00
72438;BME280;60444;43.534;-5.674;2023-03-29T07:45:24;101503.94;;;15.33;100.00
72438;BME280;60444;43.534;-5.674;2023-03-29T07:47:54;101480.47;;;15.30;100.00
72438;BME280;60444;43.534;-5.674;2023-03-29T07:50:20;101506.69;;;15.48;100.00
72438;BME280;60444;43.534;-5.674;2023-03-29T07:52:45;101497.53;;;15.49;100.00
72438;BME280;60444;43.534;-5.674;2023-03-29T07:55:13;101505.88;;;15.62;100.00
72438;BME280;60444;43.534;-5.674;2023-03-29T07:57:38;101486.19;;;15.57;100.00
72438;BME280;60444;43.534;-5.674;2023-03-29T08:00:05;101494.44;;;15.71;100.00
72438;BME280;60444;43.534;-5.674;2023-03-29T08:02:39;101496.22;;;15.72;100.00
72438;BME280;60444;43.534;-5.674;2023-03-29T08:05:05;101486.84;;;15.76;100.00
72438;BME280;60444;43.534;-5.674;2023-03-29T08:07:31;101493.22;;;15.91;98.13
72438;BME280;60444;43.534;-5.674;2023-03-29T08:09:57;101491.81;;;15.99;96.34
72438;BME280;60444;43.534;-5.674;2023-03-29T08:12:22;101491.53;;;16.04;100.00
72438;BME280;60444;43.534;-5.674;2023-03-29T08:14:48;101470.75;;;16.01;99.53
72438;BME280;60444;43.534;-5.674;2023-03-29T08:17:13;101491.47;;;16.19;100.00
72438;BME280;60444;43.534;-5.674;2023-03-29T08:19:40;101478.81;;;16.18;99.87
72438;BME280;60444;43.534;-5.674;2023-03-29T08:22:05;101472.09;;;16.24;94.41
72438;BME280;60444;43.534;-5.674;2023-03-29T08:24:31;101476.50;;;16.40;92.48
72438;BME280;60444;43.534;-5.674;2023-03-29T08:26:57;101484.84;;;16.53;97.60
72438;BME280;60444;43.534;-5.674;2023-03-29T08:29:23;101472.06;;;16.53;91.56
72438;BME280;60444;43.534;-5.674;2023-03-29T08:31:48;101452.75;;;16.56;89.33
72438;BME280;60444;43.534;-5.674;2023-03-29T08:34:14;101477.91;;;16.76;93.91
72438;BME280;60444;43.534;-5.674;2023-03-29T08:36:40;101480.06;;;16.85;90.18
72438;BME280;60444;43.534;-5.674;2023-03-29T08:39:06;101475.94;;;16.92;88.12
72438;BME280;60444;43.534;-5.674;2023-03-29T08:41:37;101482.59;;;17.02;88.87
72438;BME280;60444;43.534;-5.674;2023-03-29T08:49:25;101465.34;;;17.28;95.13
72438;BME280;60444;43.534;-5.674;2023-03-29T08:51:57;101467.28;;;17.40;95.91
72438;BME280;60444;43.534;-5.674;2023-03-29T08:54:39;101441.88;;;17.38;87.46
72438;BME280;60444;43.534;-5.674;2023-03-29T08:57:31;101455.44;;;17.53;87.89
72438;BME280;60444;43.534;-5.674;2023-03-29T09:00:00;101446.59;;;17.63;89.85
72438;BME280;60444;43.534;-5.674;2023-03-29T09:02:30;101446.84;;;17.72;86.60
72438;BME280;60444;43.534;-5.674;2023-03-29T09:05:01;101458.41;;;17.90;86.35
72438;BME280;60444;43.534;-5.674;2023-03-29T09:07:30;101447.91;;;17.96;86.40
72438;BME280;60444;43.534;-5.674;2023-03-29T09:09:55;101447.25;;;18.05;85.79
72438;BME280;60444;43.534;-5.674;2023-03-29T09:12:29;101456.25;;;18.20;85.47
72438;BME280;60444;43.534;-5.674;2023-03-29T09:25:16;101442.03;;;18.65;79.78
72438;BME280;60444;43.534;-5.674;2023-03-29T09:30:22;101434.38;;;18.83;81.39
72438;BME280;60444;43.534;-5.674;2023-03-29T09:33:03;101432.41;;;18.85;79.75
72438;BME280;60444;43.534;-5.674;2023-03-29T09:35:34;101439.84;;;18.95;77.95
72438;BME280;60444;43.534;-5.674;2023-03-29T09:38:08;101427.97;;;18.95;76.53
72438;BME280;60444;43.534;-5.674;2023-03-29T09:40:44;101444.50;;;19.06;75.21
72438;BME280;60444;43.534;-5.674;2023-03-29T09:43:15;101425.56;;;19.03;75.93
72438;BME280;60444;43.534;-5.674;2023-03-29T09:45:46;101430.00;;;19.16;75.05
72438;BME280;60444;43.534;-5.674;2023-03-29T09:48:16;101431.66;;;19.19;78.63
72438;BME280;60444;43.534;-5.674;2023-03-29T09:50:47;101429.63;;;19.21;84.64
72438;BME280;60444;43.534;-5.674;2023-03-29T09:53:17;101423.09;;;19.11;78.38
72438;BME280;60444;43.534;-5.674;2023-03-29T09:55:45;101430.00;;;19.16;77.45
72438;BME280;60444;43.534;-5.674;2023-03-29T09:58:15;101399.09;;;19.02;78.53
72438;BME280;60444;43.534;-5.674;2023-03-29T10:00:42;101418.38;;;19.13;78.61
72438;BME280;60444;43.534;-5.674;2023-03-29T10:03:16;101396.47;;;19.00;78.46
72438;BME280;60444;43.534;-5.674;2023-03-29T10:05:45;101426.50;;;19.14;80.11
72438;BME280;60444;43.534;-5.674;2023-03-29T10:08:21;101431.53;;;19.20;83.13
72438;BME280;60444;43.534;-5.674;2023-03-29T10:10:47;101414.44;;;19.17;85.10
72438;BME280;60444;43.534;-5.674;2023-03-29T10:13:19;101423.19;;;19.22;86.28
72438;BME280;60444;43.534;-5.674;2023-03-29T10:16:04;101417.69;;;19.22;84.48
72438;BME280;60444;43.534;-5.674;2023-03-29T10:18:33;101410.22;;;19.24;84.72
72438;BME280;60444;43.534;-5.674;2023-03-29T10:21:03;101407.69;;;19.21;84.93
72438;BME280;60444;43.534;-5.674;2023-03-29T10:23:32;101414.50;;;19.28;87.13
72438;BME280;60444;43.534;-5.674;2023-03-29T10:25:58;101413.72;;;19.26;85.95
72438;BME280;60444;43.534;-5.674;2023-03-29T10:28:24;101431.81;;;19.28;86.57
72438;BME280;60444;43.534;-5.674;2023-03-29T10:30:56;101429.84;;;19.30;86.24
72438;BME280;60444;43.534;-5.674;2023-03-29T10:33:28;101415.53;;;19.14;85.94
72438;BME280;60444;43.534;-5.674;2023-03-29T10:35:55;101432.88;;;19.15;81.32
72438;BME280;60444;43.534;-5.674;2023-03-29T10:38:23;101434.31;;;19.08;83.05
72438;BME280;60444;43.534;-5.674;2023-03-29T10:40:53;101415.34;;;18.92;80.91
72438;BME280;60444;43.534;-5.674;2023-03-29T10:43:22;101442.97;;;19.02;82.04
72438;BME280;60444;43.534;-5.674;2023-03-29T10:45:53;101441.69;;;18.95;80.38
72438;BME280;60444;43.534;-5.674;2023-03-29T10:48:23;101425.56;;;18.90;80.44
72438;BME280;60444;43.534;-5.674;2023-03-29T10:50:50;101427.44;;;18.90;81.95
72438;BME280;60444;43.534;-5.674;2023-03-29T10:53:22;101423.69;;;18.91;82.63
72438;BME280;60444;43.534;-5.674;2023-03-29T10:58:38;101424.72;;;18.90;78.68
72438;BME280;60444;43.534;-5.674;2023-03-29T11:01:11;101419.34;;;18.88;80.73
72438;BME280;60444;43.534;-5.674;2023-03-29T11:09:01;101429.28;;;19.02;76.27
72438;BME280;60444;43.534;-5.674;2023-03-29T11:11:51;101414.91;;;18.98;73.29
72438;BME280;60444;43.534;-5.674;2023-03-29T11:22:19;101431.34;;;19.11;74.17
72438;BME280;60444;43.534;-5.674;2023-03-29T11:25:00;101431.97;;;19.14;73.75
72438;BME280;60444;43.534;-5.674;2023-03-29T11:30:21;101438.09;;;19.18;74.35
72438;BME280;60444;43.534;-5.674;2023-03-29T11:38:15;101424.16;;;19.21;71.92
72438;BME280;60444;43.534;-5.674;2023-03-29T11:40:51;101426.81;;;19.22;72.46
72438;BME280;60444;43.534;-5.674;2023-03-29T11:45:59;101426.44;;;19.27;77.83
72438;BME280;60444;43.534;-5.674;2023-03-29T11:48:31;101429.94;;;19.29;77.07
72438;BME280;60444;43.534;-5.674;2023-03-29T11:56:30;101404.09;;;19.33;71.44
72438;BME280;60444;43.534;-5.674;2023-03-29T11:59:04;101420.50;;;19.45;76.70
72438;BME280;60444;43.534;-5.674;2023-03-29T12:01:37;101413.88;;;19.48;71.41
72438;BME280;60444;43.534;-5.674;2023-03-29T12:04:10;101415.63;;;19.49;71.16
72438;BME280;60444;43.534;-5.674;2023-03-29T12:09:11;101394.06;;;19.55;69.77
72438;BME280;60444;43.534;-5.674;2023-03-29T12:11:47;101391.63;;;19.63;79.56
72438;BME280;60444;43.534;-5.674;2023-03-29T12:14:16;101381.88;;;19.59;80.23
72438;BME280;60444;43.534;-5.674;2023-03-29T12:19:21;101378.41;;;19.69;59.84
72438;BME280;60444;43.534;-5.674;2023-03-29T12:21:48;101398.31;;;19.83;61.17
72438;BME280;60444;43.534;-5.674;2023-03-29T12:24:16;101391.34;;;19.90;53.75
72438;BME280;60444;43.534;-5.674;2023-03-29T12:26:49;101386.13;;;19.98;55.24
72438;BME280;60444;43.534;-5.674;2023-03-29T12:40:22;101384.72;;;20.38;60.48
72438;BME280;60444;43.534;-5.674;2023-03-29T12:42:58;101391.72;;;20.42;68.13
72438;BME280;60444;43.534;-5.674;2023-03-29T12:45:35;101383.47;;;20.42;64.88
72438;BME280;60444;43.534;-5.674;2023-03-29T12:48:01;101368.25;;;20.49;62.84
72438;BME280;60444;43.534;-5.674;2023-03-29T12:50:36;101357.03;;;20.52;61.41
72438;BME280;60444;43.534;-5.674;2023-03-29T12:54:13;101347.75;;;20.64;66.84
72438;BME280;60444;43.534;-5.674;2023-03-29T12:56:18;101335.59;;;20.67;59.15
72438;BME280;60444;43.534;-5.674;2023-03-29T13:01:33;101321.34;;;20.84;58.51
72438;BME280;60444;43.534;-5.674;2023-03-29T13:12:23;101305.72;;;21.07;56.11
72438;BME280;60444;43.534;-5.674;2023-03-29T13:15:21;101299.19;;;21.08;55.23
72438;BME280;60444;43.534;-5.674;2023-03-29T13:20:44;101302.91;;;21.18;55.61
72438;BME280;60444;43.534;-5.674;2023-03-29T13:26:05;101287.13;;;21.20;55.71
72438;BME280;60444;43.534;-5.674;2023-03-29T13:37:23;101265.53;;;21.36;55.17
72438;BME280;60444;43.534;-5.674;2023-03-29T13:39:54;101246.16;;;21.37;56.44
72438;BME280;60444;43.534;-5.674;2023-03-29T13:45:13;101222.84;;;21.41;56.42
72438;BME280;60444;43.534;-5.674;2023-03-29T13:47:40;101231.63;;;21.56;56.67
72438;BME280;60444;43.534;-5.674;2023-03-29T13:50:19;101232.84;;;21.63;57.98
72438;BME280;60444;43.534;-5.674;2023-03-29T13:53:11;101229.41;;;21.71;61.88
72438;BME280;60444;43.534;-5.674;2023-03-29T13:55:51;101231.56;;;21.67;57.00
72438;BME280;60444;43.534;-5.674;2023-03-29T14:01:26;101207.78;;;21.87;51.32
72438;BME280;60444;43.534;-5.674;2023-03-29T14:03:54;101207.78;;;21.87;49.95
72438;BME280;60444;43.534;-5.674;2023-03-29T14:06:26;101203.56;;;21.83;49.07
72438;BME280;60444;43.534;-5.674;2023-03-29T14:08:54;101202.13;;;21.88;50.86
72438;BME280;60444;43.534;-5.674;2023-03-29T14:11:25;101199.97;;;21.92;49.50
72438;BME280;60444;43.534;-5.674;2023-03-29T14:13:59;101190.28;;;21.97;49.81
72438;BME280;60444;43.534;-5.674;2023-03-29T14:16:28;101176.06;;;21.92;51.88
72438;BME280;60444;43.534;-5.674;2023-03-29T14:19:02;101178.00;;;22.01;51.00
72438;BME280;60444;43.534;-5.674;2023-03-29T14:21:28;101179.16;;;21.99;51.22
72438;BME280;60444;43.534;-5.674;2023-03-29T14:23:57;101184.34;;;21.92;57.46
72438;BME280;60444;43.534;-5.674;2023-03-29T14:26:32;101167.41;;;21.76;55.28
72438;BME280;60444;43.534;-5.674;2023-03-29T14:28:59;101178.25;;;21.68;57.57
72438;BME280;60444;43.534;-5.674;2023-03-29T14:31:34;101161.81;;;21.57;57.47
72438;BME280;60444;43.534;-5.674;2023-03-29T14:34:02;101157.94;;;21.39;55.55